createdAt,value
2019-05-09T00:00:47.000Z,10.91
2019-05-09T00:01:47.000Z,10.90
2019-05-09T00:02:47.000Z,10.91
2019-05-09T00:03:47.000Z,10.90
2019-05-09T00:04:47.000Z,10.88
2019-05-09T00:05:47.000Z,10.91
2019-05-09T00:06:47.000Z,10.90
2019-05-09T00:07:47.000Z,10.88
2019-05-09T00:08:47.000Z,10.90
2019-05-09T00:09:47.000Z,10.87
2019-05-09T00:10:47.000Z,10.90
2019-05-09T00:11:47.000Z,10.91
2019-05-09T00:12:47.000Z,10.90
2019-05-09T00:13:48.000Z,10.90
2019-05-09T00:14:47.000Z,10.88
2019-05-09T00:15:47.000Z,10.88
2019-05-09T00:16:47.000Z,10.90
2019-05-09T00:17:47.000Z,10.91
2019-05-09T00:18:47.000Z,10.90
2019-05-09T00:19:47.000Z,10.91
2019-05-09T00:20:47.000Z,10.87
2019-05-09T00:21:47.000Z,10.90
2019-05-09T00:22:47.000Z,10.90
2019-05-09T00:23:47.000Z,10.90
2019-05-09T00:24:47.000Z,10.90
2019-05-09T00:25:47.000Z,10.87
2019-05-09T00:26:47.000Z,10.90
2019-05-09T00:27:47.000Z,10.90
2019-05-09T00:28:47.000Z,10.87
2019-05-09T00:29:47.000Z,10.89
2019-05-09T00:30:47.000Z,10.87
2019-05-09T00:31:47.000Z,10.86
2019-05-09T00:32:47.000Z,10.84
2019-05-09T00:33:47.000Z,10.84
2019-05-09T00:34:48.000Z,10.84
2019-05-09T00:35:47.000Z,10.81
2019-05-09T00:36:47.000Z,10.81
2019-05-09T00:37:47.000Z,10.81
2019-05-09T00:38:47.000Z,10.83
2019-05-09T00:39:47.000Z,10.80
2019-05-09T00:40:47.000Z,10.83
2019-05-09T00:41:47.000Z,10.81
2019-05-09T00:42:47.000Z,10.83
2019-05-09T00:43:47.000Z,10.81
2019-05-09T00:44:47.000Z,10.83
2019-05-09T00:45:47.000Z,10.83
2019-05-09T00:46:47.000Z,10.85
2019-05-09T00:47:47.000Z,10.84
2019-05-09T00:48:47.000Z,10.83
2019-05-09T00:49:47.000Z,10.81
2019-05-09T00:50:47.000Z,10.83
2019-05-09T00:51:47.000Z,10.81
2019-05-09T00:52:47.000Z,10.79
2019-05-09T00:53:47.000Z,10.78
2019-05-09T00:54:47.000Z,10.75
2019-05-09T00:55:49.000Z,10.73
2019-05-09T00:56:48.000Z,10.72
2019-05-09T00:57:47.000Z,10.71
2019-05-09T00:58:47.000Z,10.72
2019-05-09T00:59:47.000Z,10.68
2019-05-09T01:00:47.000Z,10.68
2019-05-09T01:01:47.000Z,10.70
2019-05-09T01:02:47.000Z,10.69
2019-05-09T01:03:47.000Z,10.68
2019-05-09T01:04:47.000Z,10.68
2019-05-09T01:05:47.000Z,10.66
2019-05-09T01:06:47.000Z,10.66
2019-05-09T01:07:47.000Z,10.66
2019-05-09T01:08:47.000Z,10.67
2019-05-09T01:09:47.000Z,10.65
2019-05-09T01:10:47.000Z,10.61
2019-05-09T01:11:47.000Z,10.59
2019-05-09T01:12:47.000Z,10.61
2019-05-09T01:13:47.000Z,10.61
2019-05-09T01:14:47.000Z,10.59
2019-05-09T01:15:47.000Z,10.59
2019-05-09T01:16:47.000Z,10.59
2019-05-09T01:17:47.000Z,10.59
2019-05-09T01:18:47.000Z,10.58
2019-05-09T01:19:47.000Z,10.55
2019-05-09T01:20:47.000Z,10.58
2019-05-09T01:21:47.000Z,10.57
2019-05-09T01:22:47.000Z,10.55
2019-05-09T01:23:47.000Z,10.54
2019-05-09T01:24:47.000Z,10.55
2019-05-09T01:25:47.000Z,10.53
2019-05-09T01:26:47.000Z,10.53
2019-05-09T01:27:47.000Z,10.48
2019-05-09T01:28:47.000Z,10.48
2019-05-09T01:29:48.000Z,10.46
2019-05-09T01:30:47.000Z,10.49
2019-05-09T01:31:47.000Z,10.48
2019-05-09T01:32:47.000Z,10.47
2019-05-09T01:33:47.000Z,10.48
2019-05-09T01:34:47.000Z,10.49
2019-05-09T01:35:47.000Z,10.47
2019-05-09T01:36:47.000Z,10.46
2019-05-09T01:37:47.000Z,10.46
2019-05-09T01:38:47.000Z,10.45
2019-05-09T01:39:47.000Z,10.46
2019-05-09T01:40:48.000Z,10.46
2019-05-09T01:41:47.000Z,10.42
2019-05-09T01:42:47.000Z,10.45
2019-05-09T01:43:47.000Z,10.45
2019-05-09T01:44:47.000Z,10.44
2019-05-09T01:45:47.000Z,10.43
2019-05-09T01:46:47.000Z,10.45
2019-05-09T01:47:47.000Z,10.43
2019-05-09T01:48:47.000Z,10.45
2019-05-09T01:49:47.000Z,10.43
2019-05-09T01:50:47.000Z,10.46
2019-05-09T01:51:47.000Z,10.43
2019-05-09T01:52:47.000Z,10.44
2019-05-09T01:53:47.000Z,10.47
2019-05-09T01:54:47.000Z,10.44
2019-05-09T01:55:47.000Z,10.44
2019-05-09T01:56:47.000Z,10.47
2019-05-09T01:57:47.000Z,10.44
2019-05-09T01:58:47.000Z,10.47
2019-05-09T01:59:47.000Z,10.47
2019-05-09T02:00:48.000Z,10.47
2019-05-09T02:01:47.000Z,10.46
2019-05-09T02:02:47.000Z,10.46
2019-05-09T02:03:47.000Z,10.45
2019-05-09T02:04:47.000Z,10.45
2019-05-09T02:05:47.000Z,10.43
2019-05-09T02:06:48.000Z,10.44
2019-05-09T02:07:47.000Z,10.40
2019-05-09T02:08:47.000Z,10.38
2019-05-09T02:09:47.000Z,10.40
2019-05-09T02:10:48.000Z,10.37
2019-05-09T02:11:47.000Z,10.39
2019-05-09T02:12:48.000Z,10.37
2019-05-09T02:13:47.000Z,10.36
2019-05-09T02:14:47.000Z,10.36
2019-05-09T02:15:47.000Z,10.32
2019-05-09T02:16:47.000Z,10.33
2019-05-09T02:17:47.000Z,10.31
2019-05-09T02:18:47.000Z,10.32
2019-05-09T02:19:47.000Z,10.31
2019-05-09T02:20:47.000Z,10.31
2019-05-09T02:21:47.000Z,10.30
2019-05-09T02:22:48.000Z,10.29
2019-05-09T02:23:47.000Z,10.28
2019-05-09T02:24:47.000Z,10.28
2019-05-09T02:25:47.000Z,10.24
2019-05-09T02:26:47.000Z,10.22
2019-05-09T02:27:47.000Z,10.22
2019-05-09T02:28:47.000Z,10.19
2019-05-09T02:29:47.000Z,10.17
2019-05-09T02:30:47.000Z,10.18
2019-05-09T02:31:47.000Z,10.17
2019-05-09T02:32:47.000Z,10.16
2019-05-09T02:33:47.000Z,10.16
2019-05-09T02:34:48.000Z,10.14
2019-05-09T02:35:47.000Z,10.12
2019-05-09T02:36:47.000Z,10.12
2019-05-09T02:37:47.000Z,10.12
2019-05-09T02:38:47.000Z,10.10
2019-05-09T02:39:47.000Z,10.10
2019-05-09T02:40:47.000Z,10.07
2019-05-09T02:41:47.000Z,10.09
2019-05-09T02:42:47.000Z,10.07
2019-05-09T02:43:47.000Z,10.09
2019-05-09T02:44:47.000Z,10.07
2019-05-09T02:45:47.000Z,10.06
2019-05-09T02:46:47.000Z,10.09
2019-05-09T02:47:47.000Z,10.07
2019-05-09T02:48:47.000Z,10.06
2019-05-09T02:49:47.000Z,10.05
2019-05-09T02:50:47.000Z,10.06
2019-05-09T02:51:47.000Z,10.05
2019-05-09T02:52:47.000Z,10.05
2019-05-09T02:53:47.000Z,10.04
2019-05-09T02:54:47.000Z,10.02
2019-05-09T02:55:47.000Z,10.02
2019-05-09T02:56:47.000Z,10.04
2019-05-09T02:57:47.000Z,10.01
2019-05-09T02:58:47.000Z,10.01
2019-05-09T02:59:47.000Z,10.02
2019-05-09T03:00:47.000Z,10.01
2019-05-09T03:01:47.000Z,9.99
2019-05-09T03:02:47.000Z,9.99
2019-05-09T03:03:47.000Z,10.00
2019-05-09T03:04:47.000Z,10.00
2019-05-09T03:05:47.000Z,10.00
2019-05-09T03:06:47.000Z,10.00
2019-05-09T03:07:47.000Z,10.01
2019-05-09T03:08:48.000Z,10.00
2019-05-09T03:09:47.000Z,10.00
2019-05-09T03:10:47.000Z,10.01
2019-05-09T03:11:47.000Z,10.03
2019-05-09T03:12:47.000Z,10.03
2019-05-09T03:13:47.000Z,10.01
2019-05-09T03:14:47.000Z,10.03
2019-05-09T03:15:47.000Z,10.02
2019-05-09T03:16:47.000Z,10.03
2019-05-09T03:17:47.000Z,10.01
2019-05-09T03:18:47.000Z,10.04
2019-05-09T03:19:47.000Z,10.04
2019-05-09T03:20:47.000Z,10.05
2019-05-09T03:21:47.000Z,10.05
2019-05-09T03:22:47.000Z,10.05
2019-05-09T03:23:47.000Z,10.05
2019-05-09T03:24:47.000Z,10.05
2019-05-09T03:25:47.000Z,10.04
2019-05-09T03:26:48.000Z,10.05
2019-05-09T03:27:47.000Z,10.05
2019-05-09T03:28:47.000Z,10.04
2019-05-09T03:29:47.000Z,10.04
2019-05-09T03:30:47.000Z,10.07
2019-05-09T03:31:47.000Z,10.05
2019-05-09T03:32:47.000Z,10.05
2019-05-09T03:33:47.000Z,10.08
2019-05-09T03:34:47.000Z,10.05
2019-05-09T03:35:47.000Z,10.05
2019-05-09T03:36:47.000Z,10.04
2019-05-09T03:37:47.000Z,10.06
2019-05-09T03:38:47.000Z,10.05
2019-05-09T03:39:47.000Z,10.05
2019-05-09T03:40:47.000Z,10.06
2019-05-09T03:41:47.000Z,10.06
2019-05-09T03:42:47.000Z,10.06
2019-05-09T03:43:47.000Z,10.06
2019-05-09T03:44:47.000Z,10.06
2019-05-09T03:45:47.000Z,10.06
2019-05-09T03:46:47.000Z,10.05
2019-05-09T03:47:47.000Z,10.05
2019-05-09T03:48:48.000Z,10.07
2019-05-09T03:49:47.000Z,10.07
2019-05-09T03:50:47.000Z,10.08
2019-05-09T03:51:47.000Z,10.08
2019-05-09T03:52:47.000Z,10.09
2019-05-09T03:53:47.000Z,10.10
2019-05-09T03:54:47.000Z,10.10
2019-05-09T03:55:47.000Z,10.07
2019-05-09T03:56:47.000Z,10.11
2019-05-09T03:57:47.000Z,10.08
2019-05-09T03:58:46.000Z,10.11
2019-05-09T03:59:46.000Z,10.10
2019-05-09T04:00:46.000Z,10.11
2019-05-09T04:01:46.000Z,10.11
2019-05-09T04:02:46.000Z,10.07
2019-05-09T04:03:46.000Z,10.06
2019-05-09T04:04:46.000Z,10.06
2019-05-09T04:05:46.000Z,10.08
2019-05-09T04:06:46.000Z,10.05
2019-05-09T04:07:46.000Z,10.06
2019-05-09T04:08:46.000Z,10.05
2019-05-09T04:09:46.000Z,10.05
2019-05-09T04:10:46.000Z,10.05
2019-05-09T04:11:46.000Z,10.04
2019-05-09T04:12:46.000Z,10.06
2019-05-09T04:13:46.000Z,10.04
2019-05-09T04:14:46.000Z,10.02
2019-05-09T04:15:46.000Z,9.99
2019-05-09T04:16:46.000Z,10.00
2019-05-09T04:17:46.000Z,9.99
2019-05-09T04:18:46.000Z,9.98
2019-05-09T04:19:46.000Z,9.98
2019-05-09T04:20:46.000Z,9.97
2019-05-09T04:21:46.000Z,9.96
2019-05-09T04:22:46.000Z,9.96
2019-05-09T04:23:46.000Z,9.92
2019-05-09T04:24:46.000Z,9.92
2019-05-09T04:25:46.000Z,9.91
2019-05-09T04:26:46.000Z,9.91
2019-05-09T04:27:46.000Z,9.90
2019-05-09T04:28:46.000Z,9.87
2019-05-09T04:29:46.000Z,9.89
2019-05-09T04:30:47.000Z,9.88
2019-05-09T04:31:46.000Z,9.86
2019-05-09T04:32:46.000Z,9.85
2019-05-09T04:33:46.000Z,9.85
2019-05-09T04:34:46.000Z,9.83
2019-05-09T04:35:46.000Z,9.81
2019-05-09T04:36:46.000Z,9.80
2019-05-09T04:37:46.000Z,9.82
2019-05-09T04:38:46.000Z,9.79
2019-05-09T04:39:46.000Z,9.80
2019-05-09T04:40:46.000Z,9.81
2019-05-09T04:41:46.000Z,9.81
2019-05-09T04:42:46.000Z,9.81
2019-05-09T04:43:46.000Z,9.84
2019-05-09T04:44:46.000Z,9.81
2019-05-09T04:45:46.000Z,9.83
2019-05-09T04:46:46.000Z,9.84
2019-05-09T04:47:46.000Z,9.81
2019-05-09T04:48:46.000Z,9.83
2019-05-09T04:49:46.000Z,9.81
2019-05-09T04:50:46.000Z,9.83
2019-05-09T04:51:46.000Z,9.81
2019-05-09T04:52:46.000Z,9.81
2019-05-09T04:53:46.000Z,9.84
2019-05-09T04:54:46.000Z,9.84
2019-05-09T04:55:46.000Z,9.81
2019-05-09T04:56:46.000Z,9.81
2019-05-09T04:57:46.000Z,9.82
2019-05-09T04:58:46.000Z,9.84
2019-05-09T04:59:46.000Z,9.85
2019-05-09T05:00:46.000Z,9.84
2019-05-09T05:01:46.000Z,9.88
2019-05-09T05:02:46.000Z,9.88
2019-05-09T05:03:46.000Z,9.91
2019-05-09T05:04:46.000Z,9.96
2019-05-09T05:05:46.000Z,9.99
2019-05-09T05:06:46.000Z,10.03
2019-05-09T05:07:46.000Z,10.04
2019-05-09T05:08:46.000Z,10.09
2019-05-09T05:09:46.000Z,10.11
2019-05-09T05:10:46.000Z,10.11
2019-05-09T05:11:46.000Z,10.15
2019-05-09T05:12:46.000Z,10.17
2019-05-09T05:13:46.000Z,10.20
2019-05-09T05:14:47.000Z,10.21
2019-05-09T05:15:46.000Z,10.22
2019-05-09T05:16:46.000Z,10.24
2019-05-09T05:17:46.000Z,10.26
2019-05-09T05:18:46.000Z,10.23
2019-05-09T05:19:46.000Z,10.26
2019-05-09T05:20:46.000Z,10.28
2019-05-09T05:21:46.000Z,10.28
2019-05-09T05:22:46.000Z,10.32
2019-05-09T05:23:46.000Z,10.34
2019-05-09T05:24:46.000Z,10.38
2019-05-09T05:25:46.000Z,10.41
2019-05-09T05:26:46.000Z,10.45
2019-05-09T05:27:46.000Z,10.46
2019-05-09T05:28:46.000Z,10.46
2019-05-09T05:29:46.000Z,10.50
2019-05-09T05:30:46.000Z,10.56
2019-05-09T05:31:46.000Z,10.58
2019-05-09T05:32:46.000Z,10.63
2019-05-09T05:33:46.000Z,10.65
2019-05-09T05:34:46.000Z,10.69
2019-05-09T05:35:46.000Z,10.73
2019-05-09T05:36:46.000Z,10.71
2019-05-09T05:37:46.000Z,10.74
2019-05-09T05:38:46.000Z,10.76
2019-05-09T05:39:46.000Z,10.78
2019-05-09T05:40:46.000Z,10.81
2019-05-09T05:41:46.000Z,10.82
2019-05-09T05:42:46.000Z,10.80
2019-05-09T05:43:46.000Z,10.84
2019-05-09T05:44:46.000Z,10.82
2019-05-09T05:45:46.000Z,10.83
2019-05-09T05:46:46.000Z,10.82
2019-05-09T05:47:46.000Z,10.81
2019-05-09T05:48:46.000Z,10.82
2019-05-09T05:49:46.000Z,10.77
2019-05-09T05:50:46.000Z,10.76
2019-05-09T05:51:46.000Z,10.75
2019-05-09T05:52:46.000Z,10.74
2019-05-09T05:53:46.000Z,10.72
2019-05-09T05:54:46.000Z,10.70
2019-05-09T05:55:46.000Z,10.71
2019-05-09T05:56:46.000Z,10.71
2019-05-09T05:57:47.000Z,10.72
2019-05-09T05:58:46.000Z,10.73
2019-05-09T05:59:46.000Z,10.75
2019-05-09T06:00:46.000Z,10.72
2019-05-09T06:01:46.000Z,10.75
2019-05-09T06:02:46.000Z,10.73
2019-05-09T06:03:46.000Z,10.74
2019-05-09T06:04:46.000Z,10.79
2019-05-09T06:05:46.000Z,10.77
2019-05-09T06:06:46.000Z,10.76
2019-05-09T06:07:46.000Z,10.75
2019-05-09T06:08:46.000Z,10.74
2019-05-09T06:09:46.000Z,10.72
2019-05-09T06:10:46.000Z,10.71
2019-05-09T06:11:46.000Z,10.71
2019-05-09T06:12:46.000Z,10.71
2019-05-09T06:13:46.000Z,10.71
2019-05-09T06:14:46.000Z,10.71
2019-05-09T06:15:46.000Z,10.75
2019-05-09T06:16:46.000Z,10.77
2019-05-09T06:17:46.000Z,10.77
2019-05-09T06:18:46.000Z,10.77
2019-05-09T06:19:46.000Z,10.77
2019-05-09T06:20:46.000Z,10.77
2019-05-09T06:21:46.000Z,10.78
2019-05-09T06:22:46.000Z,10.78
2019-05-09T06:23:46.000Z,10.80
2019-05-09T06:24:46.000Z,10.79
2019-05-09T06:25:46.000Z,10.81
2019-05-09T06:26:46.000Z,10.76
2019-05-09T06:27:46.000Z,10.78
2019-05-09T06:28:46.000Z,10.80
2019-05-09T06:29:46.000Z,10.78
2019-05-09T06:30:46.000Z,10.78
2019-05-09T06:31:46.000Z,10.81
2019-05-09T06:32:46.000Z,10.83
2019-05-09T06:33:46.000Z,10.83
2019-05-09T06:34:46.000Z,10.85
2019-05-09T06:35:46.000Z,10.85
2019-05-09T06:36:46.000Z,10.85
2019-05-09T06:37:46.000Z,10.89
2019-05-09T06:38:46.000Z,10.90
2019-05-09T06:39:46.000Z,10.91
2019-05-09T06:40:47.000Z,10.90
2019-05-09T06:41:46.000Z,10.91
2019-05-09T06:42:46.000Z,10.89
2019-05-09T06:43:46.000Z,10.90
2019-05-09T06:44:46.000Z,10.90
2019-05-09T06:45:46.000Z,10.87
2019-05-09T06:46:46.000Z,10.88
2019-05-09T06:47:46.000Z,10.87
2019-05-09T06:48:46.000Z,10.86
2019-05-09T06:49:46.000Z,10.89
2019-05-09T06:50:46.000Z,10.91
2019-05-09T06:51:46.000Z,10.92
2019-05-09T06:52:46.000Z,10.92
2019-05-09T06:53:46.000Z,10.91
2019-05-09T06:54:46.000Z,10.94
2019-05-09T06:55:46.000Z,10.94
2019-05-09T06:56:46.000Z,10.92
2019-05-09T06:57:46.000Z,10.93
2019-05-09T06:58:46.000Z,10.91
2019-05-09T06:59:46.000Z,10.92
2019-05-09T07:00:46.000Z,10.93
2019-05-09T07:01:46.000Z,10.95
2019-05-09T07:02:47.000Z,10.97
2019-05-09T07:03:46.000Z,10.96
2019-05-09T07:04:46.000Z,10.97
2019-05-09T07:05:46.000Z,10.97
2019-05-09T07:06:46.000Z,10.97
2019-05-09T07:07:46.000Z,10.98
2019-05-09T07:08:46.000Z,10.97
2019-05-09T07:09:46.000Z,10.97
2019-05-09T07:10:46.000Z,10.98
2019-05-09T07:11:46.000Z,10.97
2019-05-09T07:12:46.000Z,10.94
2019-05-09T07:13:46.000Z,10.96
2019-05-09T07:14:46.000Z,10.93
2019-05-09T07:15:46.000Z,10.94
2019-05-09T07:16:46.000Z,10.92
2019-05-09T07:17:46.000Z,10.91
2019-05-09T07:18:46.000Z,10.90
2019-05-09T07:19:46.000Z,10.88
2019-05-09T07:20:47.000Z,10.91
2019-05-09T07:21:46.000Z,10.92
2019-05-09T07:22:46.000Z,10.94
2019-05-09T07:23:46.000Z,10.97
2019-05-09T07:24:47.000Z,10.96
2019-05-09T07:25:46.000Z,10.99
2019-05-09T07:26:46.000Z,11.01
2019-05-09T07:27:46.000Z,11.01
2019-05-09T07:28:46.000Z,11.03
2019-05-09T07:29:46.000Z,11.03
2019-05-09T07:30:46.000Z,11.05
2019-05-09T07:31:46.000Z,11.07
2019-05-09T07:32:46.000Z,11.09
2019-05-09T07:33:46.000Z,11.09
2019-05-09T07:34:46.000Z,11.10
2019-05-09T07:35:46.000Z,11.11
2019-05-09T07:36:46.000Z,11.11
2019-05-09T07:37:46.000Z,11.14
2019-05-09T07:38:46.000Z,11.14
2019-05-09T07:39:46.000Z,11.14
2019-05-09T07:40:46.000Z,11.14
2019-05-09T07:41:46.000Z,11.15
2019-05-09T07:42:46.000Z,11.16
2019-05-09T07:43:46.000Z,11.15
2019-05-09T07:44:46.000Z,11.15
2019-05-09T07:45:46.000Z,11.16
2019-05-09T07:46:46.000Z,11.17
2019-05-09T07:47:46.000Z,11.16
2019-05-09T07:48:46.000Z,11.17
2019-05-09T07:49:46.000Z,11.21
2019-05-09T07:50:46.000Z,11.20
2019-05-09T07:51:46.000Z,11.18
2019-05-09T07:52:46.000Z,11.21
2019-05-09T07:53:46.000Z,11.23
2019-05-09T07:54:46.000Z,11.25
2019-05-09T07:55:46.000Z,11.31
2019-05-09T07:56:46.000Z,11.34
2019-05-09T07:57:46.000Z,11.34
2019-05-09T07:58:46.000Z,11.39
2019-05-09T07:59:46.000Z,11.38
2019-05-09T08:00:46.000Z,11.39
2019-05-09T08:01:46.000Z,11.40
2019-05-09T08:02:46.000Z,11.42
2019-05-09T08:03:46.000Z,11.45
2019-05-09T08:04:46.000Z,11.46
2019-05-09T08:05:46.000Z,11.42
2019-05-09T08:06:46.000Z,11.46
2019-05-09T08:07:46.000Z,11.46
2019-05-09T08:08:46.000Z,11.43
2019-05-09T08:09:46.000Z,11.44
2019-05-09T08:10:46.000Z,11.47
2019-05-09T08:11:46.000Z,11.47
2019-05-09T08:12:46.000Z,11.47
2019-05-09T08:13:46.000Z,11.48
2019-05-09T08:14:46.000Z,11.51
2019-05-09T08:15:46.000Z,11.52
2019-05-09T08:16:46.000Z,11.54
2019-05-09T08:17:46.000Z,11.56
2019-05-09T08:18:46.000Z,11.60
2019-05-09T08:19:46.000Z,11.62
2019-05-09T08:20:46.000Z,11.62
2019-05-09T08:21:46.000Z,11.62
2019-05-09T08:22:46.000Z,11.60
2019-05-09T08:23:46.000Z,11.61
2019-05-09T08:24:46.000Z,11.65
2019-05-09T08:25:46.000Z,11.64
2019-05-09T08:26:46.000Z,11.64
2019-05-09T08:27:46.000Z,11.63
2019-05-09T08:28:47.000Z,11.64
2019-05-09T08:29:46.000Z,11.62
2019-05-09T08:30:46.000Z,11.65
2019-05-09T08:31:46.000Z,11.68
2019-05-09T08:32:46.000Z,11.70
2019-05-09T08:33:46.000Z,11.71
2019-05-09T08:34:46.000Z,11.68
2019-05-09T08:35:46.000Z,11.72
2019-05-09T08:36:46.000Z,11.73
2019-05-09T08:37:46.000Z,11.74
2019-05-09T08:38:46.000Z,11.77
2019-05-09T08:39:46.000Z,11.76
2019-05-09T08:40:46.000Z,11.80
2019-05-09T08:41:46.000Z,11.79
2019-05-09T08:42:46.000Z,11.77
2019-05-09T08:43:46.000Z,11.78
2019-05-09T08:44:46.000Z,11.79
2019-05-09T08:45:46.000Z,11.80
2019-05-09T08:46:46.000Z,11.80
2019-05-09T08:47:46.000Z,11.81
2019-05-09T08:48:46.000Z,11.80
2019-05-09T08:49:46.000Z,11.81
2019-05-09T08:50:47.000Z,11.80
2019-05-09T08:51:46.000Z,11.79
2019-05-09T08:52:46.000Z,11.79
2019-05-09T08:53:46.000Z,11.78
2019-05-09T08:54:46.000Z,11.78
2019-05-09T08:55:46.000Z,11.79
2019-05-09T08:56:46.000Z,11.79
2019-05-09T08:57:46.000Z,11.80
2019-05-09T08:58:46.000Z,11.81
2019-05-09T08:59:46.000Z,11.83
2019-05-09T09:00:46.000Z,11.82
2019-05-09T09:01:46.000Z,11.81
2019-05-09T09:02:46.000Z,11.80
2019-05-09T09:03:46.000Z,11.81
2019-05-09T09:04:46.000Z,11.83
2019-05-09T09:05:46.000Z,11.78
2019-05-09T09:06:46.000Z,11.78
2019-05-09T09:07:46.000Z,11.78
2019-05-09T09:08:46.000Z,11.74
2019-05-09T09:09:46.000Z,11.76
2019-05-09T09:10:46.000Z,11.75
2019-05-09T09:11:46.000Z,11.76
2019-05-09T09:12:46.000Z,11.78
2019-05-09T09:13:46.000Z,11.80
2019-05-09T09:14:46.000Z,11.79
2019-05-09T09:15:46.000Z,11.81
2019-05-09T09:16:46.000Z,11.81
2019-05-09T09:17:46.000Z,11.79
2019-05-09T09:18:46.000Z,11.80
2019-05-09T09:19:46.000Z,11.82
2019-05-09T09:20:46.000Z,11.83
2019-05-09T09:21:46.000Z,11.85
2019-05-09T09:22:46.000Z,11.85
2019-05-09T09:23:46.000Z,11.86
2019-05-09T09:24:46.000Z,11.84
2019-05-09T09:25:46.000Z,11.86
2019-05-09T09:26:46.000Z,11.86
2019-05-09T09:27:46.000Z,11.86
2019-05-09T09:28:46.000Z,11.87
2019-05-09T09:29:46.000Z,11.86
2019-05-09T09:30:46.000Z,11.86
2019-05-09T09:31:46.000Z,11.90
2019-05-09T09:32:46.000Z,11.92
2019-05-09T09:33:46.000Z,11.94
2019-05-09T09:34:47.000Z,11.98
2019-05-09T09:35:46.000Z,12.00
2019-05-09T09:36:46.000Z,12.02
2019-05-09T09:37:46.000Z,12.05
2019-05-09T09:38:46.000Z,12.07
2019-05-09T09:39:46.000Z,12.09
2019-05-09T09:40:46.000Z,12.12
2019-05-09T09:41:46.000Z,12.14
2019-05-09T09:42:46.000Z,12.19
2019-05-09T09:43:46.000Z,12.20
2019-05-09T09:44:46.000Z,12.23
2019-05-09T09:45:46.000Z,12.24
2019-05-09T09:46:46.000Z,12.25
2019-05-09T09:47:46.000Z,12.24
2019-05-09T09:48:46.000Z,12.24
2019-05-09T09:49:46.000Z,12.24
2019-05-09T09:50:46.000Z,12.26
2019-05-09T09:51:46.000Z,12.23
2019-05-09T09:52:46.000Z,12.25
2019-05-09T09:53:46.000Z,12.26
2019-05-09T09:54:46.000Z,12.27
2019-05-09T09:55:46.000Z,12.24
2019-05-09T09:56:46.000Z,12.23
2019-05-09T09:57:46.000Z,12.26
2019-05-09T09:58:46.000Z,12.27
2019-05-09T09:59:46.000Z,12.29
2019-05-09T10:00:46.000Z,12.29
2019-05-09T10:01:46.000Z,12.34
2019-05-09T10:02:46.000Z,12.35
2019-05-09T10:03:46.000Z,12.38
2019-05-09T10:04:46.000Z,12.38
2019-05-09T10:05:46.000Z,12.38
2019-05-09T10:06:46.000Z,12.41
2019-05-09T10:07:46.000Z,12.44
2019-05-09T10:08:46.000Z,12.50
2019-05-09T10:09:46.000Z,12.53
2019-05-09T10:10:46.000Z,12.55
2019-05-09T10:11:46.000Z,12.60
2019-05-09T10:12:46.000Z,12.65
2019-05-09T10:13:46.000Z,12.65
2019-05-09T10:14:46.000Z,12.65
2019-05-09T10:15:46.000Z,12.70
2019-05-09T10:16:46.000Z,12.71
2019-05-09T10:17:46.000Z,12.71
2019-05-09T10:18:46.000Z,12.73
2019-05-09T10:19:46.000Z,12.73
2019-05-09T10:20:46.000Z,12.79
2019-05-09T10:21:46.000Z,12.82
2019-05-09T10:22:46.000Z,12.84
2019-05-09T10:23:46.000Z,12.86
2019-05-09T10:24:46.000Z,12.89
2019-05-09T10:25:46.000Z,12.93
2019-05-09T10:26:46.000Z,12.92
2019-05-09T10:27:46.000Z,12.94
2019-05-09T10:28:47.000Z,12.96
2019-05-09T10:29:47.000Z,12.98
2019-05-09T10:30:46.000Z,13.02
2019-05-09T10:31:46.000Z,12.97
2019-05-09T10:32:46.000Z,12.97
2019-05-09T10:33:46.000Z,12.97
2019-05-09T10:34:46.000Z,12.96
2019-05-09T10:35:46.000Z,12.95
2019-05-09T10:36:46.000Z,12.96
2019-05-09T10:37:46.000Z,12.96
2019-05-09T10:38:46.000Z,12.94
2019-05-09T10:39:46.000Z,12.91
2019-05-09T10:40:46.000Z,12.90
2019-05-09T10:41:46.000Z,12.88
2019-05-09T10:42:46.000Z,12.88
2019-05-09T10:43:46.000Z,12.81
2019-05-09T10:44:46.000Z,12.80
2019-05-09T10:45:46.000Z,12.76
2019-05-09T10:46:46.000Z,12.77
2019-05-09T10:47:46.000Z,12.74
2019-05-09T10:48:46.000Z,12.71
2019-05-09T10:49:46.000Z,12.69
2019-05-09T10:50:46.000Z,12.67
2019-05-09T10:51:46.000Z,12.69
2019-05-09T10:52:46.000Z,12.70
2019-05-09T10:53:46.000Z,12.66
2019-05-09T10:54:46.000Z,12.66
2019-05-09T10:55:46.000Z,12.65
2019-05-09T10:56:46.000Z,12.63
2019-05-09T10:57:46.000Z,12.65
2019-05-09T10:58:46.000Z,12.67
2019-05-09T10:59:46.000Z,12.66
2019-05-09T11:00:46.000Z,12.64
2019-05-09T11:01:46.000Z,12.60
2019-05-09T11:02:46.000Z,12.59
2019-05-09T11:03:46.000Z,12.58
2019-05-09T11:04:46.000Z,12.57
2019-05-09T11:05:46.000Z,12.58
2019-05-09T11:06:46.000Z,12.59
2019-05-09T11:07:46.000Z,12.61
2019-05-09T11:08:46.000Z,12.62
2019-05-09T11:09:46.000Z,12.60
2019-05-09T11:10:46.000Z,12.61
2019-05-09T11:11:46.000Z,12.56
2019-05-09T11:12:47.000Z,12.54
2019-05-09T11:13:46.000Z,12.54
2019-05-09T11:14:46.000Z,12.50
2019-05-09T11:15:46.000Z,12.51
2019-05-09T11:16:46.000Z,12.46
2019-05-09T11:17:46.000Z,12.42
2019-05-09T11:18:46.000Z,12.40
2019-05-09T11:19:46.000Z,12.38
2019-05-09T11:20:46.000Z,12.36
2019-05-09T11:21:46.000Z,12.35
2019-05-09T11:22:46.000Z,12.34
2019-05-09T11:23:46.000Z,12.31
2019-05-09T11:24:46.000Z,12.30
2019-05-09T11:25:46.000Z,12.30
2019-05-09T11:26:46.000Z,12.28
2019-05-09T11:27:46.000Z,12.27
2019-05-09T11:28:46.000Z,12.27
2019-05-09T11:29:46.000Z,12.27
2019-05-09T11:30:46.000Z,12.23
2019-05-09T11:31:46.000Z,12.23
2019-05-09T11:32:46.000Z,12.23
2019-05-09T11:33:46.000Z,12.21
2019-05-09T11:34:46.000Z,12.23
2019-05-09T11:35:46.000Z,12.21
2019-05-09T11:36:46.000Z,12.18
2019-05-09T11:37:46.000Z,12.21
2019-05-09T11:38:46.000Z,12.18
2019-05-09T11:39:46.000Z,12.18
2019-05-09T11:40:46.000Z,12.19
2019-05-09T11:41:46.000Z,12.20
2019-05-09T11:42:46.000Z,12.20
2019-05-09T11:43:46.000Z,12.18
2019-05-09T11:44:46.000Z,12.16
2019-05-09T11:45:46.000Z,12.17
2019-05-09T11:46:46.000Z,12.18
2019-05-09T11:47:46.000Z,12.19
2019-05-09T11:48:46.000Z,12.19
2019-05-09T11:49:46.000Z,12.22
2019-05-09T11:50:46.000Z,12.23
2019-05-09T11:51:46.000Z,12.23
2019-05-09T11:52:46.000Z,12.21
2019-05-09T11:53:46.000Z,12.24
2019-05-09T11:54:46.000Z,12.24
2019-05-09T11:55:46.000Z,12.23
2019-05-09T11:56:46.000Z,12.23
2019-05-09T11:57:46.000Z,12.25
2019-05-09T11:58:46.000Z,12.26
2019-05-09T11:59:46.000Z,12.27
2019-05-09T12:00:46.000Z,12.24
2019-05-09T12:01:46.000Z,12.23
2019-05-09T12:02:46.000Z,12.23
2019-05-09T12:03:46.000Z,12.23
2019-05-09T12:04:46.000Z,12.23
2019-05-09T12:05:46.000Z,12.24
2019-05-09T12:06:46.000Z,12.25
2019-05-09T12:07:46.000Z,12.23
2019-05-09T12:08:46.000Z,12.24
2019-05-09T12:09:46.000Z,12.23
2019-05-09T12:10:46.000Z,12.22
2019-05-09T12:11:46.000Z,12.24
2019-05-09T12:12:46.000Z,12.23
2019-05-09T12:13:46.000Z,12.23
2019-05-09T12:14:46.000Z,12.23
2019-05-09T12:15:46.000Z,12.24
2019-05-09T12:16:46.000Z,12.24
2019-05-09T12:17:46.000Z,12.24
2019-05-09T12:18:46.000Z,12.26
2019-05-09T12:19:46.000Z,12.24
2019-05-09T12:20:46.000Z,12.27
2019-05-09T12:21:46.000Z,12.27
2019-05-09T12:22:46.000Z,12.27
2019-05-09T12:23:46.000Z,12.28
2019-05-09T12:24:46.000Z,12.28
2019-05-09T12:25:46.000Z,12.29
2019-05-09T12:26:46.000Z,12.29
2019-05-09T12:27:46.000Z,12.28
2019-05-09T12:28:46.000Z,12.30
2019-05-09T12:29:46.000Z,12.31
2019-05-09T12:30:46.000Z,12.31
2019-05-09T12:31:46.000Z,12.37
2019-05-09T12:32:46.000Z,12.40
2019-05-09T12:33:46.000Z,12.41
2019-05-09T12:34:46.000Z,12.44
2019-05-09T12:35:46.000Z,12.45
2019-05-09T12:36:46.000Z,12.47
2019-05-09T12:37:46.000Z,12.47
2019-05-09T12:38:47.000Z,12.49
2019-05-09T12:39:47.000Z,12.48
2019-05-09T12:40:46.000Z,12.52
2019-05-09T12:41:46.000Z,12.52
2019-05-09T12:42:46.000Z,12.51
2019-05-09T12:43:46.000Z,12.48
2019-05-09T12:44:46.000Z,12.47
2019-05-09T12:45:46.000Z,12.46
2019-05-09T12:46:46.000Z,12.46
2019-05-09T12:47:46.000Z,12.46
2019-05-09T12:48:46.000Z,12.46
2019-05-09T12:49:46.000Z,12.47
2019-05-09T12:50:46.000Z,12.46
2019-05-09T12:51:46.000Z,12.45
2019-05-09T12:52:46.000Z,12.47
2019-05-09T12:53:46.000Z,12.47
2019-05-09T12:54:46.000Z,12.47